Time;durP1;ratioP1;P1;durP2;ratioP2;P2;SDS_P1;SDS_P2;PMS_P1;PMS_P2;Temp;Humidity;BMP_temperature;BMP_pressure;BME280_temperature;BME280_humidity;BME280_pressure;Samples;Min_cycle;Max_cycle;Signal;HPM_P1;HPM_P2
2024/04/17 00:00:43;;;;;;;;;;;;;;;5.62;82.00;101127.30;106896;1275;22793;-47
2024/04/17 00:03:13;;;;;;;;;;;;;;;5.60;82.09;101129.14;106963;1275;22503;-47
2024/04/17 00:05:39;;;;;;;;;;;;;;;5.56;82.05;101123.45;106951;1275;22485;-45
2024/04/17 00:08:06;;;;;;;;;;;;;;;5.54;82.16;101123.34;106866;1275;22627;-47
2024/04/17 00:10:33;;;;;;;;;;;;;;;5.53;82.24;101126.52;106918;1275;22428;-47
2024/04/17 00:12:59;;;;;;;;;;;;;;;5.53;82.36;101122.33;106851;1275;22949;-46
2024/04/17 00:15:26;;;;;;;;;;;;;;;5.51;82.31;101122.19;106880;1275;22512;-45
2024/04/17 00:17:53;;;;;;;;;;;;;;;5.49;82.59;101119.80;106927;1275;22443;-46
2024/04/17 00:20:20;;;;;;;;;;;;;;;5.50;82.60;101120.83;106996;1269;22617;-45
2024/04/17 00:22:47;;;;;;;;;;;;;;;5.49;82.72;101118.42;106905;1275;25211;-47
2024/04/17 00:25:13;;;;;;;;;;;;;;;5.48;82.64;101114.59;107076;1275;22492;-46
2024/04/17 00:27:40;;;;;;;;;;;;;;;5.46;82.71;101113.08;106985;1275;22495;-46
2024/04/17 00:30:07;;;;;;;;;;;;;;;5.43;82.92;101112.81;106872;1275;24265;-46
2024/04/17 00:32:34;;;;;;;;;;;;;;;5.40;82.91;101113.95;106948;1275;22457;-46
2024/04/17 00:35:00;;;;;;;;;;;;;;;5.38;82.97;101114.73;106869;1275;22482;-45
2024/04/17 00:37:27;;;;;;;;;;;;;;;5.35;82.90;101113.02;106901;1275;22505;-45
2024/04/17 00:39:54;;;;;;;;;;;;;;;5.34;83.17;101115.52;106887;1275;22555;-46
2024/04/17 00:42:21;;;;;;;;;;;;;;;5.34;83.19;101115.53;106939;1275;22458;-47
2024/04/17 00:44:48;;;;;;;;;;;;;;;5.34;83.41;101113.27;106867;1275;22447;-45
2024/04/17 00:47:14;;;;;;;;;;;;;;;5.34;83.30;101116.78;106900;1275;25281;-46
2024/04/17 00:49:41;;;;;;;;;;;;;;;5.31;83.00;101116.84;106931;1275;23050;-47
2024/04/17 00:52:08;;;;;;;;;;;;;;;5.29;83.01;101116.59;106978;1275;24314;-48
2024/04/17 00:54:35;;;;;;;;;;;;;;;5.26;83.10;101113.52;106907;1275;25874;-45
2024/04/17 00:57:02;;;;;;;;;;;;;;;5.21;82.89;101113.31;107018;1275;22463;-51
2024/04/17 00:59:28;;;;;;;;;;;;;;;5.16;83.00;101113.80;106988;1275;24265;-47
2024/04/17 01:01:55;;;;;;;;;;;;;;;5.11;83.11;101115.89;106973;1275;22432;-46
2024/04/17 01:04:26;;;;;;;;;;;;;;;5.08;83.08;101115.95;106799;1275;22640;-47
2024/04/17 01:06:52;;;;;;;;;;;;;;;5.06;83.12;101117.05;106853;1275;23922;-50
2024/04/17 01:09:19;;;;;;;;;;;;;;;5.04;83.21;101117.12;106838;1275;22491;-49
2024/04/17 01:11:45;;;;;;;;;;;;;;;5.04;83.27;101118.55;107020;1275;25329;-50
2024/04/17 01:14:12;;;;;;;;;;;;;;;5.02;83.23;101117.54;106894;1275;23887;-48
2024/04/17 01:16:38;;;;;;;;;;;;;;;5.01;83.23;101116.70;106889;1275;22819;-50
2024/04/17 01:19:05;;;;;;;;;;;;;;;4.97;83.36;101114.87;106911;1275;22797;-49
2024/04/17 01:21:32;;;;;;;;;;;;;;;4.95;83.44;101114.59;106879;1275;25249;-50
2024/04/17 01:23:59;;;;;;;;;;;;;;;4.91;83.34;101112.25;106910;1275;22586;-46
2024/04/17 01:26:25;;;;;;;;;;;;;;;4.88;83.23;101106.73;106975;1275;23872;-48
2024/04/17 01:28:52;;;;;;;;;;;;;;;4.84;83.21;101102.29;106907;1275;23710;-44
2024/04/17 01:31:19;;;;;;;;;;;;;;;4.83;83.45;101102.15;106865;1275;22492;-46
2024/04/17 01:33:48;;;;;;;;;;;;;;;4.81;83.43;101102.36;106857;1275;22444;-46
2024/04/17 01:36:15;;;;;;;;;;;;;;;4.80;83.55;101102.92;106854;1275;25405;-48
2024/04/17 01:38:41;;;;;;;;;;;;;;;4.79;83.41;101100.16;106985;1275;25579;-45
2024/04/17 01:41:11;;;;;;;;;;;;;;;4.75;83.43;101101.66;106995;1275;24500;-45
2024/04/17 01:43:37;;;;;;;;;;;;;;;4.71;83.50;101100.90;106970;1275;24705;-45
2024/04/17 01:46:04;;;;;;;;;;;;;;;4.68;83.43;101096.60;106881;1275;22630;-46
2024/04/17 01:48:30;;;;;;;;;;;;;;;4.65;83.35;101096.34;107017;1275;22868;-47
2024/04/17 01:50:57;;;;;;;;;;;;;;;4.62;83.52;101091.17;107194;1275;25303;-45
2024/04/17 01:53:24;;;;;;;;;;;;;;;4.60;83.47;101096.13;106865;1275;24193;-45
2024/04/17 01:55:50;;;;;;;;;;;;;;;4.58;83.68;101089.89;106848;1275;22874;-44
2024/04/17 01:58:17;;;;;;;;;;;;;;;4.57;83.84;101097.09;106852;1275;22804;-46
2024/04/17 02:00:43;;;;;;;;;;;;;;;4.56;84.03;101096.23;106869;1275;22429;-44
2024/04/17 02:03:10;;;;;;;;;;;;;;;4.56;83.71;101092.06;106863;1275;22485;-46
2024/04/17 02:05:37;;;;;;;;;;;;;;;4.55;83.97;101099.07;106616;1272;361152;-48
2024/04/17 02:08:04;;;;;;;;;;;;;;;4.53;83.80;101098.23;106897;1275;24154;-48
2024/04/17 02:10:30;;;;;;;;;;;;;;;4.51;83.88;101098.30;106966;1275;25341;-49
2024/04/17 02:12:57;;;;;;;;;;;;;;;4.47;84.34;101092.11;107009;1275;22537;-49
2024/04/17 02:15:23;;;;;;;;;;;;;;;4.45;84.28;101098.29;106924;1275;25287;-49
2024/04/17 02:17:50;;;;;;;;;;;;;;;4.44;84.56;101098.33;106879;1275;22661;-48
2024/04/17 02:20:17;;;;;;;;;;;;;;;4.43;84.38;101101.33;106912;1275;22795;-49
2024/04/17 02:22:44;;;;;;;;;;;;;;;4.42;84.73;101100.13;106943;1275;22661;-50
2024/04/17 02:25:10;;;;;;;;;;;;;;;4.41;84.94;101099.98;106993;1275;22479;-48
2024/04/17 02:27:37;;;;;;;;;;;;;;;4.40;84.92;101100.18;107100;1275;22522;-50
2024/04/17 02:30:04;;;;;;;;;;;;;;;4.39;85.13;101103.52;107076;1275;24129;-44
2024/04/17 02:32:30;;;;;;;;;;;;;;;4.38;85.06;101105.31;107077;1275;26019;-46
2024/04/17 02:34:57;;;;;;;;;;;;;;;4.34;85.17;101105.23;107129;1275;22512;-44
2024/04/17 02:37:24;;;;;;;;;;;;;;;4.32;85.41;101105.98;106902;1275;22634;-44
2024/04/17 02:39:50;;;;;;;;;;;;;;;4.30;85.68;101100.27;106950;1275;24050;-45
2024/04/17 02:42:17;;;;;;;;;;;;;;;4.28;86.10;101102.41;106942;1275;22496;-46
2024/04/17 02:44:45;;;;;;;;;;;;;;;4.28;86.31;101103.30;106863;1275;24957;-46
2024/04/17 02:47:12;;;;;;;;;;;;;;;4.28;86.33;101102.06;106969;1275;22613;-45
2024/04/17 02:49:38;;;;;;;;;;;;;;;4.28;87.06;101099.77;107047;1275;22499;-45
2024/04/17 02:52:05;;;;;;;;;;;;;;;4.29;87.51;101098.70;106902;1275;22432;-44
2024/04/17 02:54:32;;;;;;;;;;;;;;;4.30;87.75;101096.58;107050;1275;22440;-45
2024/04/17 02:56:58;;;;;;;;;;;;;;;4.34;87.87;101098.05;107113;1275;22634;-45
2024/04/17 02:59:28;;;;;;;;;;;;;;;4.37;88.19;101096.23;106976;1275;22499;-45
2024/04/17 03:01:55;;;;;;;;;;;;;;;4.39;88.29;101090.76;107055;1275;22539;-44
2024/04/17 03:04:24;;;;;;;;;;;;;;;4.42;88.59;101089.80;106998;1275;23905;-44
2024/04/17 03:06:50;;;;;;;;;;;;;;;4.44;88.62;101090.95;107128;1275;22603;-43
2024/04/17 03:09:17;;;;;;;;;;;;;;;4.49;88.75;101097.48;106936;1275;22621;-46
2024/04/17 03:11:43;;;;;;;;;;;;;;;4.52;88.94;101098.45;106924;1275;24423;-45
2024/04/17 03:14:10;;;;;;;;;;;;;;;4.55;88.92;101097.86;106981;1275;22509;-44
2024/04/17 03:16:36;;;;;;;;;;;;;;;4.57;88.99;101095.52;107052;1275;22886;-43
2024/04/17 03:19:03;;;;;;;;;;;;;;;4.59;89.21;101097.20;106984;1275;25233;-46
2024/04/17 03:21:32;;;;;;;;;;;;;;;4.61;89.34;101099.27;106917;1275;23845;-44
2024/04/17 03:23:59;;;;;;;;;;;;;;;4.63;89.24;101098.86;107047;1275;22440;-44
2024/04/17 03:26:25;;;;;;;;;;;;;;;4.64;89.31;101096.17;106920;1275;22446;-44
2024/04/17 03:28:52;;;;;;;;;;;;;;;4.67;89.42;101095.59;106838;1275;24106;-44
2024/04/17 03:31:19;;;;;;;;;;;;;;;4.71;89.53;101098.96;106942;1275;22459;-47
2024/04/17 03:33:46;;;;;;;;;;;;;;;4.74;89.54;101103.95;106991;1275;22495;-45
2024/04/17 03:36:12;;;;;;;;;;;;;;;4.79;89.62;101106.64;107164;1275;22506;-44
2024/04/17 03:38:39;;;;;;;;;;;;;;;4.82;89.71;101106.89;106870;1275;22529;-46
2024/04/17 03:41:05;;;;;;;;;;;;;;;4.85;89.77;101106.98;106975;1275;25281;-44
2024/04/17 03:43:32;;;;;;;;;;;;;;;4.87;89.36;101113.56;107018;1275;22920;-43
2024/04/17 03:46:02;;;;;;;;;;;;;;;4.88;89.51;101113.73;107011;1275;25223;-45
2024/04/17 03:48:32;;;;;;;;;;;;;;;4.91;89.72;101115.41;107028;1275;24106;-44
2024/04/17 03:50:58;;;;;;;;;;;;;;;4.93;89.73;101119.88;107128;1275;22538;-45
2024/04/17 03:53:25;;;;;;;;;;;;;;;4.96;89.83;101116.15;106999;1275;22801;-46
2024/04/17 03:55:52;;;;;;;;;;;;;;;4.99;89.88;101116.05;107112;1275;22661;-45
2024/04/17 03:58:19;;;;;;;;;;;;;;;5.04;89.90;101118.89;106974;1275;22463;-45
2024/04/17 04:00:47;;;;;;;;;;;;;;;5.08;89.85;101122.96;106958;1275;22572;-44
2024/04/17 04:03:13;;;;;;;;;;;;;;;5.11;89.69;101124.81;107182;1275;22519;-46
2024/04/17 04:05:44;;;;;;;;;;;;;;;5.11;89.98;101125.31;107164;1275;22517;-45
2024/04/17 04:08:13;;;;;;;;;;;;;;;5.13;90.25;101125.96;107021;1275;22627;-49
2024/04/17 04:10:40;;;;;;;;;;;;;;;5.16;90.32;101129.20;107079;1275;25378;-49
2024/04/17 04:13:07;;;;;;;;;;;;;;;5.19;90.45;101133.88;106982;1275;22496;-45
2024/04/17 04:15:33;;;;;;;;;;;;;;;5.22;90.60;101134.84;106876;1275;25326;-45
2024/04/17 04:18:03;;;;;;;;;;;;;;;5.24;90.76;101143.51;106877;1275;22624;-44
2024/04/17 04:20:32;;;;;;;;;;;;;;;5.27;90.72;101144.48;106950;1275;24424;-46
2024/04/17 04:22:59;;;;;;;;;;;;;;;5.28;90.99;101146.21;107001;1275;22533;-44
2024/04/17 04:25:26;;;;;;;;;;;;;;;5.27;90.82;101142.02;106984;1275;22495;-45
2024/04/17 04:27:53;;;;;;;;;;;;;;;5.29;91.17;101135.32;107068;1275;22521;-44
2024/04/17 04:30:20;;;;;;;;;;;;;;;5.30;91.10;101131.25;107048;1275;25198;-47
2024/04/17 04:32:49;;;;;;;;;;;;;;;5.32;91.10;101130.34;107045;1275;22495;-45
2024/04/17 04:35:18;;;;;;;;;;;;;;;5.33;91.18;101129.95;106903;1275;24138;-45
2024/04/17 04:37:47;;;;;;;;;;;;;;;5.34;91.11;101132.55;106921;1275;22450;-44
2024/04/17 04:40:13;;;;;;;;;;;;;;;5.36;91.04;101131.95;107038;1275;22658;-44
2024/04/17 04:42:40;;;;;;;;;;;;;;;5.39;91.26;101133.80;107035;1275;22452;-45
2024/04/17 04:45:07;;;;;;;;;;;;;;;5.42;91.25;101133.54;107023;1275;25300;-44
2024/04/17 04:47:33;;;;;;;;;;;;;;;5.46;91.35;101136.57;107102;1275;24208;-47
2024/04/17 04:50:00;;;;;;;;;;;;;;;5.50;91.46;101135.91;107155;1275;25904;-45
2024/04/17 04:52:27;;;;;;;;;;;;;;;5.54;91.50;101141.75;106916;1275;22445;-46
2024/04/17 04:54:53;;;;;;;;;;;;;;;5.56;91.38;101135.17;106885;1275;22461;-44
2024/04/17 04:57:22;;;;;;;;;;;;;;;5.56;91.58;101139.21;106934;1275;22444;-47
2024/04/17 04:59:49;;;;;;;;;;;;;;;5.53;91.40;101143.01;106834;1275;22496;-46
2024/04/17 05:02:18;;;;;;;;;;;;;;;5.50;91.37;101147.84;107089;1275;22530;-45
2024/04/17 05:04:45;;;;;;;;;;;;;;;5.48;91.32;101155.23;106888;1275;25261;-47
2024/04/17 05:07:11;;;;;;;;;;;;;;;5.50;91.76;101158.00;106831;1275;25888;-47
2024/04/17 05:09:38;;;;;;;;;;;;;;;5.48;91.08;101158.56;106847;1275;22484;-47
2024/04/17 05:12:07;;;;;;;;;;;;;;;5.47;90.75;101155.96;106873;1275;22508;-46
2024/04/17 05:14:34;;;;;;;;;;;;;;;5.48;90.88;101154.89;106877;1275;23860;-45
2024/04/17 05:17:02;;;;;;;;;;;;;;;5.53;90.93;101155.63;106918;1275;22495;-46
2024/04/17 05:19:28;;;;;;;;;;;;;;;5.57;90.76;101155.34;106910;1275;22621;-47
2024/04/17 05:21:55;;;;;;;;;;;;;;;5.61;90.88;101155.93;107157;1275;22539;-46
2024/04/17 05:24:22;;;;;;;;;;;;;;;5.64;90.82;101155.98;107026;1275;22628;-45
2024/04/17 05:26:50;;;;;;;;;;;;;;;5.67;90.70;101156.43;106914;1275;22622;-49
2024/04/17 05:29:16;;;;;;;;;;;;;;;5.69;90.32;101154.43;106877;1275;22471;-45
2024/04/17 05:31:44;;;;;;;;;;;;;;;5.70;90.19;101153.35;106895;1275;23911;-44
2024/04/17 05:34:10;;;;;;;;;;;;;;;5.72;89.99;101159.06;106922;1275;23793;-44
2024/04/17 05:36:37;;;;;;;;;;;;;;;5.73;90.05;101167.97;107181;1275;25350;-45
2024/04/17 05:39:04;;;;;;;;;;;;;;;5.74;90.06;101172.66;106954;1275;22930;-44
2024/04/17 05:41:30;;;;;;;;;;;;;;;5.75;90.22;101171.59;106848;1275;24176;-43
2024/04/17 05:43:57;;;;;;;;;;;;;;;5.75;90.45;101169.15;106901;1275;24173;-44
2024/04/17 05:46:25;;;;;;;;;;;;;;;5.77;90.43;101167.85;106835;1275;24173;-44
2024/04/17 05:48:52;;;;;;;;;;;;;;;5.80;90.39;101164.80;107016;1275;22790;-44
2024/04/17 05:51:18;;;;;;;;;;;;;;;5.81;90.27;101166.36;107133;1275;22580;-44
2024/04/17 05:53:45;;;;;;;;;;;;;;;5.75;89.54;101160.20;107044;1275;25945;-45
2024/04/17 05:56:12;;;;;;;;;;;;;;;5.75;89.56;101159.86;107086;1275;24161;-44
2024/04/17 05:58:38;;;;;;;;;;;;;;;5.78;89.41;101162.75;106949;1275;25364;-43
2024/04/17 06:01:05;;;;;;;;;;;;;;;5.80;89.21;101167.23;107042;1275;23385;-44
2024/04/17 06:03:32;;;;;;;;;;;;;;;5.81;89.17;101164.23;107087;1275;22638;-46
2024/04/17 06:06:01;;;;;;;;;;;;;;;5.84;89.29;101170.81;107162;1267;25378;-45
2024/04/17 06:08:27;;;;;;;;;;;;;;;5.85;89.66;101171.11;106989;1275;22453;-45
2024/04/17 06:10:54;;;;;;;;;;;;;;;5.87;89.44;101169.14;107009;1270;22474;-48
2024/04/17 06:13:21;;;;;;;;;;;;;;;5.89;89.40;101169.95;106881;1275;22747;-45
2024/04/17 06:15:48;;;;;;;;;;;;;;;5.93;89.50;101170.16;106933;1275;25916;-47
2024/04/17 06:18:15;;;;;;;;;;;;;;;5.97;89.41;101177.09;106992;1275;25891;-45
2024/04/17 06:20:42;;;;;;;;;;;;;;;6.03;89.53;101175.86;107120;1275;23762;-47
2024/04/17 06:23:08;;;;;;;;;;;;;;;6.08;89.44;101176.21;106946;1275;22489;-45
2024/04/17 06:25:35;;;;;;;;;;;;;;;6.12;89.23;101173.09;106847;1275;24066;-46
2024/04/17 06:28:01;;;;;;;;;;;;;;;6.18;88.98;101175.52;106886;1275;24305;-45
2024/04/17 06:30:28;;;;;;;;;;;;;;;6.23;89.17;101178.35;106862;1275;25227;-45
2024/04/17 06:32:55;;;;;;;;;;;;;;;6.27;89.22;101179.27;106895;1275;25366;-45
2024/04/17 06:35:21;;;;;;;;;;;;;;;6.30;88.95;101180.77;106975;1275;22796;-47
2024/04/17 06:37:48;;;;;;;;;;;;;;;6.31;88.89;101175.64;106873;1275;23877;-45
2024/04/17 06:40:14;;;;;;;;;;;;;;;6.32;88.67;101176.63;106780;1275;23870;-45
2024/04/17 06:42:41;;;;;;;;;;;;;;;6.32;88.38;101177.86;106986;1275;25278;-45
2024/04/17 06:45:08;;;;;;;;;;;;;;;6.35;88.60;101177.06;107007;1275;22546;-46
2024/04/17 06:47:34;;;;;;;;;;;;;;;6.41;88.98;101176.35;106923;1275;24247;-47
2024/04/17 06:50:03;;;;;;;;;;;;;;;6.49;88.42;101179.08;107123;1275;25028;-47
2024/04/17 06:52:30;;;;;;;;;;;;;;;6.55;88.14;101170.07;106970;1275;24132;-45
2024/04/17 06:54:56;;;;;;;;;;;;;;;6.61;87.87;101170.77;106878;1275;22519;-48
2024/04/17 06:57:23;;;;;;;;;;;;;;;6.66;87.65;101167.42;106912;1275;25346;-45
2024/04/17 06:59:49;;;;;;;;;;;;;;;6.70;87.42;101170.80;106915;1260;25862;-47
2024/04/17 07:02:16;;;;;;;;;;;;;;;6.72;87.18;101165.81;107034;1275;22454;-45
2024/04/17 07:04:43;;;;;;;;;;;;;;;6.74;87.32;101166.06;107085;1275;24292;-46
2024/04/17 07:07:09;;;;;;;;;;;;;;;6.78;87.32;101169.80;107105;1275;24168;-46
2024/04/17 07:09:36;;;;;;;;;;;;;;;6.82;87.51;101171.80;107038;1275;22648;-45
2024/04/17 07:12:03;;;;;;;;;;;;;;;6.88;87.69;101172.08;106891;1275;24310;-46
2024/04/17 07:14:32;;;;;;;;;;;;;;;6.96;88.11;101177.77;106869;1275;24222;-47
2024/04/17 07:16:58;;;;;;;;;;;;;;;7.06;88.05;101170.55;106902;1273;25395;-47
2024/04/17 07:19:25;;;;;;;;;;;;;;;7.18;88.41;101171.52;106862;1275;25341;-45
2024/04/17 07:21:52;;;;;;;;;;;;;;;7.29;87.73;101168.13;106903;1273;22546;-47
2024/04/17 07:24:19;;;;;;;;;;;;;;;7.40;87.29;101168.77;106888;1275;22808;-47
2024/04/17 07:26:45;;;;;;;;;;;;;;;7.51;86.98;101164.33;106857;1274;24330;-46
2024/04/17 07:29:12;;;;;;;;;;;;;;;7.57;86.43;101171.84;106886;1275;22657;-47
2024/04/17 07:31:38;;;;;;;;;;;;;;;7.64;86.88;101167.67;106877;1275;22895;-46
2024/04/17 07:34:08;;;;;;;;;;;;;;;7.72;86.91;101168.77;107000;1275;24203;-51
2024/04/17 07:36:34;;;;;;;;;;;;;;;7.82;86.77;101166.63;107249;1275;25395;-51
2024/04/17 07:39:01;;;;;;;;;;;;;;;7.89;86.28;101166.50;106967;1275;24186;-52
2024/04/17 07:41:27;;;;;;;;;;;;;;;7.96;85.81;101160.09;107032;1275;24136;-46
2024/04/17 07:43:57;;;;;;;;;;;;;;;8.01;85.56;101160.41;106907;1275;22978;-50
2024/04/17 07:46:23;;;;;;;;;;;;;;;8.04;85.02;101156.02;107009;1275;22455;-49
2024/04/17 07:48:54;;;;;;;;;;;;;;;8.10;84.83;101154.05;106899;1275;24163;-48
2024/04/17 07:51:21;;;;;;;;;;;;;;;8.15;84.49;101154.38;106906;1275;22632;-45
2024/04/17 07:53:47;;;;;;;;;;;;;;;8.23;84.43;101151.94;106874;1275;25294;-49
2024/04/17 07:56:14;;;;;;;;;;;;;;;8.35;84.28;101152.15;106877;1275;24195;-47
2024/04/17 07:58:43;;;;;;;;;;;;;;;8.51;84.55;101148.34;106907;1275;22504;-47
2024/04/17 08:01:13;;;;;;;;;;;;;;;8.62;83.88;101150.46;106906;1275;23858;-49
2024/04/17 08:03:39;;;;;;;;;;;;;;;8.75;83.90;101146.73;106875;1275;22624;-46
2024/04/17 08:06:09;;;;;;;;;;;;;;;8.90;84.29;101145.18;107216;1275;24164;-45
2024/04/17 08:08:36;;;;;;;;;;;;;;;9.07;83.49;101143.38;107058;1275;25275;-46
2024/04/17 08:11:05;;;;;;;;;;;;;;;9.22;82.97;101144.13;106899;1275;22446;-47
2024/04/17 08:13:31;;;;;;;;;;;;;;;9.37;82.20;101143.23;106889;1275;22438;-47
2024/04/17 08:15:58;;;;;;;;;;;;;;;9.50;82.29;101141.58;106922;1275;22505;-47
2024/04/17 08:18:24;;;;;;;;;;;;;;;9.58;81.48;101138.20;106908;1275;22587;-49
2024/04/17 08:20:56;;;;;;;;;;;;;;;9.63;80.35;101136.90;106950;1275;25894;-47
2024/04/17 08:23:25;;;;;;;;;;;;;;;9.71;79.55;101136.72;106846;1275;24189;-46
2024/04/17 08:25:54;;;;;;;;;;;;;;;9.80;79.13;101134.86;106876;1272;24642;-48
2024/04/17 08:28:21;;;;;;;;;;;;;;;9.89;78.46;101133.89;106961;1275;24182;-48
2024/04/17 08:30:48;;;;;;;;;;;;;;;10.00;78.88;101134.74;106877;1275;22492;-47
2024/04/17 08:33:14;;;;;;;;;;;;;;;10.13;78.58;101133.40;106888;1275;22439;-48
2024/04/17 08:35:41;;;;;;;;;;;;;;;10.26;77.96;101130.49;106911;1275;22502;-47
2024/04/17 08:38:07;;;;;;;;;;;;;;;10.35;76.23;101123.17;107028;1275;23938;-47
2024/04/17 08:40:36;;;;;;;;;;;;;;;10.40;75.38;101124.48;106990;1275;23914;-49
2024/04/17 08:43:03;;;;;;;;;;;;;;;10.42;74.72;101120.88;107043;1275;24161;-48
2024/04/17 08:45:31;;;;;;;;;;;;;;;10.43;74.68;101116.21;106992;1275;22495;-48
2024/04/17 08:48:10;;;;;;;;;;;;;;;10.45;73.36;101117.52;106886;1275;23889;-46
2024/04/17 08:50:37;;;;;;;;;;;;;;;10.47;72.70;101114.05;106951;1275;22432;-49
2024/04/17 08:53:04;;;;;;;;;;;;;;;10.50;71.84;101116.58;106905;1275;25180;-50
2024/04/17 08:55:30;;;;;;;;;;;;;;;10.53;71.81;101116.77;106914;1275;25201;-47
2024/04/17 08:57:57;;;;;;;;;;;;;;;10.56;70.97;101116.08;106881;1275;24148;-51
2024/04/17 09:00:24;;;;;;;;;;;;;;;10.58;70.40;101119.34;106834;1275;22500;-50
2024/04/17 09:02:53;;;;;;;;;;;;;;;10.58;69.61;101123.92;106895;1275;22658;-49
2024/04/17 09:05:20;;;;;;;;;;;;;;;10.55;69.42;101129.71;106943;1275;22798;-47
2024/04/17 09:07:46;;;;;;;;;;;;;;;10.52;68.72;101133.08;106987;1275;24296;-48
2024/04/17 09:10:15;;;;;;;;;;;;;;;10.49;68.19;101141.36;106849;1275;24170;-48
2024/04/17 09:12:44;;;;;;;;;;;;;;;10.42;67.31;101135.89;107097;1275;22428;-50
2024/04/17 09:15:14;;;;;;;;;;;;;;;10.37;67.57;101136.83;107082;1275;23154;-50
2024/04/17 09:17:44;;;;;;;;;;;;;;;10.37;67.50;101141.63;106947;1275;24164;-51
2024/04/17 09:20:11;;;;;;;;;;;;;;;10.36;66.97;101141.67;106921;1275;24368;-49
2024/04/17 09:22:38;;;;;;;;;;;;;;;10.32;66.66;101143.13;107035;1275;24231;-49
2024/04/17 09:25:11;;;;;;;;;;;;;;;10.27;66.76;101146.13;106964;1275;22501;-48
2024/04/17 09:27:38;;;;;;;;;;;;;;;10.23;66.48;101150.56;107021;1275;22518;-47
2024/04/17 09:30:07;;;;;;;;;;;;;;;10.20;66.76;101149.66;106901;1275;24259;-46
2024/04/17 09:32:35;;;;;;;;;;;;;;;10.20;67.38;101146.48;107127;1275;24834;-47
2024/04/17 09:35:01;;;;;;;;;;;;;;;10.27;67.81;101143.30;107246;1275;22842;-48
2024/04/17 09:37:28;;;;;;;;;;;;;;;10.38;68.19;101137.70;106920;1275;24429;-48
2024/04/17 09:40:04;;;;;;;;;;;;;;;10.53;68.43;101130.87;106901;1272;22628;-49
2024/04/17 09:42:34;;;;;;;;;;;;;;;10.72;67.94;101132.91;106892;1275;22495;-46
2024/04/17 09:45:01;;;;;;;;;;;;;;;10.89;67.48;101130.06;106981;1275;22772;-47
2024/04/17 09:47:30;;;;;;;;;;;;;;;11.00;66.34;101129.65;106867;1275;22927;-49
2024/04/17 09:49:59;;;;;;;;;;;;;;;11.01;65.02;101127.46;106817;1275;24167;-49
2024/04/17 09:52:29;;;;;;;;;;;;;;;10.97;63.81;101122.38;106975;1275;24157;-47
2024/04/17 09:54:56;;;;;;;;;;;;;;;10.99;64.19;101120.89;106849;1275;24138;-48
2024/04/17 09:57:23;;;;;;;;;;;;;;;11.10;65.43;101127.53;106973;1273;25346;-46
2024/04/17 09:59:49;;;;;;;;;;;;;;;11.17;64.62;101131.43;106835;1275;22543;-48
2024/04/17 10:02:16;;;;;;;;;;;;;;;11.16;64.16;101128.62;106899;1273;25284;-47
2024/04/17 10:04:45;;;;;;;;;;;;;;;11.09;62.62;101131.66;106903;1275;23716;-47
2024/04/17 10:07:12;;;;;;;;;;;;;;;11.03;62.60;101129.89;106905;1275;23417;-50
2024/04/17 10:09:42;;;;;;;;;;;;;;;10.99;62.58;101130.95;107021;1275;24293;-50
2024/04/17 10:12:10;;;;;;;;;;;;;;;10.95;62.37;101128.54;106918;1273;22483;-47
2024/04/17 10:14:37;;;;;;;;;;;;;;;10.93;62.40;101130.23;106887;1275;22621;-50
2024/04/17 10:17:06;;;;;;;;;;;;;;;10.89;61.63;101132.88;106948;1275;22436;-49
2024/04/17 10:19:51;;;;;;;;;;;;;;;10.84;61.47;101138.14;106868;1275;24286;-47
2024/04/17 10:22:18;;;;;;;;;;;;;;;10.83;61.39;101141.17;106881;1275;24148;-51
2024/04/17 10:24:44;;;;;;;;;;;;;;;10.83;61.00;101148.58;106842;1275;22537;-47
2024/04/17 10:27:18;;;;;;;;;;;;;;;10.75;61.83;101156.10;106869;1275;25401;-48
2024/04/17 10:29:44;;;;;;;;;;;;;;;10.64;63.34;101163.56;106799;1275;25346;-47
2024/04/17 10:32:14;;;;;;;;;;;;;;;10.51;63.57;101168.80;106898;1260;22526;-48
2024/04/17 10:34:42;;;;;;;;;;;;;;;10.35;63.71;101168.20;106975;1271;24151;-49
2024/04/17 10:37:09;;;;;;;;;;;;;;;10.19;64.28;101169.67;106912;1275;22499;-51
2024/04/17 10:39:36;;;;;;;;;;;;;;;10.05;64.52;101169.64;106978;1275;22755;-51
2024/04/17 10:42:04;;;;;;;;;;;;;;;9.89;64.71;101169.73;106874;1275;24200;-51
2024/04/17 10:44:44;;;;;;;;;;;;;;;9.77;65.69;101167.83;107004;1275;24126;-50
2024/04/17 10:47:23;;;;;;;;;;;;;;;9.71;67.04;101162.67;106917;1275;23713;-52
2024/04/17 10:49:57;;;;;;;;;;;;;;;9.64;67.27;101156.45;106869;1275;24276;-52
2024/04/17 10:52:24;;;;;;;;;;;;;;;9.56;67.67;101153.45;106978;1275;24160;-52
2024/04/17 10:54:54;;;;;;;;;;;;;;;9.51;68.99;101155.13;106837;1275;22901;-51
2024/04/17 10:57:20;;;;;;;;;;;;;;;9.51;70.08;101157.96;107010;1273;22449;-52
2024/04/17 10:59:47;;;;;;;;;;;;;;;9.51;71.05;101154.05;106950;1275;24085;-51
2024/04/17 11:02:14;;;;;;;;;;;;;;;9.56;72.15;101151.02;107252;1253;25191;-52
2024/04/17 11:04:44;;;;;;;;;;;;;;;9.61;72.29;101149.00;107087;1275;22552;-48
2024/04/17 11:07:11;;;;;;;;;;;;;;;9.70;73.14;101143.80;107074;1274;23701;-47
2024/04/17 11:09:44;;;;;;;;;;;;;;;9.83;72.38;101142.66;107223;1275;22617;-46
2024/04/17 11:12:14;;;;;;;;;;;;;;;10.01;73.06;101140.73;106986;1273;23028;-47
2024/04/17 11:14:41;;;;;;;;;;;;;;;10.20;73.11;101141.20;107094;1275;25881;-46
2024/04/17 11:17:08;;;;;;;;;;;;;;;10.34;70.43;101135.23;106963;1275;23880;-48
2024/04/17 11:19:35;;;;;;;;;;;;;;;10.45;70.36;101136.77;106821;1275;24132;-47
2024/04/17 11:22:09;;;;;;;;;;;;;;;10.56;70.18;101133.23;107011;1275;23915;-49
2024/04/17 11:24:35;;;;;;;;;;;;;;;10.70;70.92;101129.66;106885;1275;25936;-47
2024/04/17 11:27:08;;;;;;;;;;;;;;;10.83;69.22;101126.65;106849;1275;22519;-47
2024/04/17 11:29:35;;;;;;;;;;;;;;;10.96;69.24;101126.72;106918;1275;23765;-48
2024/04/17 11:32:08;;;;;;;;;;;;;;;11.14;69.53;101124.29;107015;1275;22753;-48
2024/04/17 11:34:34;;;;;;;;;;;;;;;11.34;69.18;101120.92;106983;1275;22508;-50
2024/04/17 11:37:02;;;;;;;;;;;;;;;11.56;67.83;101119.16;107114;1269;25404;-49
2024/04/17 11:39:28;;;;;;;;;;;;;;;11.76;65.78;101116.06;106984;1275;23893;-47
2024/04/17 11:41:56;;;;;;;;;;;;;;;11.96;65.51;101116.90;106867;1275;22508;-47
2024/04/17 11:44:22;;;;;;;;;;;;;;;12.17;63.24;101118.88;107022;1275;25762;-51
2024/04/17 11:46:49;;;;;;;;;;;;;;;12.38;63.30;101113.42;107083;1275;25350;-47
2024/04/17 11:49:15;;;;;;;;;;;;;;;12.62;62.14;101112.53;106919;1275;25990;-50
2024/04/17 11:51:42;;;;;;;;;;;;;;;12.84;59.77;101113.84;107003;1275;25332;-48
2024/04/17 11:54:08;;;;;;;;;;;;;;;13.02;59.64;101110.77;107156;1275;24202;-52
2024/04/17 11:56:35;;;;;;;;;;;;;;;13.21;60.64;101115.95;107008;1275;23002;-49
2024/04/17 11:59:02;;;;;;;;;;;;;;;13.41;58.63;101110.67;106836;1275;25828;-50
2024/04/17 12:01:28;;;;;;;;;;;;;;;13.58;57.44;101108.68;106923;1275;22419;-49
2024/04/17 12:03:55;;;;;;;;;;;;;;;13.75;57.42;101108.29;107056;1275;23011;-50
2024/04/17 12:06:21;;;;;;;;;;;;;;;13.90;56.89;101106.75;107145;1275;22787;-51
2024/04/17 12:08:48;;;;;;;;;;;;;;;14.05;56.51;101110.23;106827;1275;25411;-50
2024/04/17 12:11:15;;;;;;;;;;;;;;;14.21;56.14;101115.15;106894;1275;22801;-50
2024/04/17 12:13:42;;;;;;;;;;;;;;;14.45;55.98;101114.08;107139;1275;24189;-49
2024/04/17 12:16:08;;;;;;;;;;;;;;;14.63;54.53;101112.73;106997;1275;24151;-49
2024/04/17 12:18:38;;;;;;;;;;;;;;;14.70;54.23;101113.83;106901;1275;22558;-48
2024/04/17 12:21:05;;;;;;;;;;;;;;;14.69;53.39;101128.09;106896;1275;24158;-47
2024/04/17 12:23:33;;;;;;;;;;;;;;;14.57;52.01;101150.41;106873;1274;22535;-48
2024/04/17 12:28:45;;;;;;;;;;;;;;;13.83;51.67;101158.73;106999;1275;23862;-48
2024/04/17 12:31:12;;;;;;;;;;;;;;;13.41;52.15;101162.30;107135;1275;24154;-48
2024/04/17 12:33:38;;;;;;;;;;;;;;;13.06;52.88;101170.48;107020;1272;22544;-50
2024/04/17 12:36:06;;;;;;;;;;;;;;;12.74;53.24;101172.59;107135;1273;24163;-48